Facebook Twitter

Wetterstation Reutte

aktuelles Wetter
 
  Temperatur Wetter Luftdruck Wind
So, 10:00 Uhr 16.8 °C - 1017.2 hPa 0 km/h km/h
So, 09:00 Uhr 15.7 °C - 1017.6 hPa 0 km/h km/h
So, 08:00 Uhr 14.9 °C - 1017.8 hPa 0 km/h km/h
So, 07:00 Uhr 14.0 °C - 1018.1 hPa 0 km/h km/h
So, 06:00 Uhr 13.8 °C - 1018.1 hPa 0 km/h km/h
So, 01:00 Uhr 16.1 °C - 1015 hPa 0 km/h km/h
So, 00:00 Uhr 15.4 °C - 1015.4 hPa 0 km/h km/h
Sa, 23:00 Uhr 17.0 °C - 1014.7 hPa 0 km/h km/h
Sa, 22:00 Uhr 16.8 °C - 1015.6 hPa 0 km/h km/h
Sa, 21:00 Uhr 18.6 °C - 1014.7 hPa 0 km/h km/h
Sa, 20:00 Uhr 21.1 °C - 1013.3 hPa 0 km/h km/h
Sa, 19:00 Uhr 22.7 °C - 1012.6 hPa 0 km/h km/h
Sa, 18:00 Uhr 22.9 °C - 1012.5 hPa 0 km/h km/h
Sa, 17:00 Uhr 23.7 °C - 1012.3 hPa 0 km/h km/h
Sa, 16:00 Uhr 24.4 °C - 1012.1 hPa 0 km/h km/h
Sa, 15:00 Uhr 24.0 °C - 1012.4 hPa 0 km/h km/h
Sa, 14:00 Uhr 23.2 °C - 1012.7 hPa 0 km/h km/h
Sa, 13:00 Uhr 22.5 °C - 1013.1 hPa 0 km/h km/h
Sa, 12:00 Uhr 21.4 °C - 1013.9 hPa 0 km/h km/h
Sa, 11:00 Uhr 19.9 °C - 1014.3 hPa 0 km/h km/h

Alle Zeitangaben in Ortszeit (MESZ)